Mc Dowell, West Virginia
Current Conditions -  °F | °C
As of 7:52 AM on Sunday 23 Nov 2014 (Local Time) from KBLF Reporting Station
Clear Clear  
Wind Chill: 48°   Ceiling: Unl
Heat Index: 48°   Visibility: 10mi
Dew Point: 33°   Wind: 3mph
Humidity: 56%   Direction: NA
Pressure: 30.15"   Gusts: NA
Location:  37.3807°N, 81.4099°W
Report Text: KBLF 231252Z AUTO VRB03KT 10SM CLR 09/01 A3015 RMK AO2 SLP204 T00890006
Loading
Personal Weather Stations






























Interactive Weather Map New forecast layout! Learn more

10-Day Weather Forecast

Advertisements
Track Severe Weather on mobile